createdAt,value
2019-05-15T00:01:03.113Z,4.90
2019-05-15T00:04:09.303Z,5.47
2019-05-15T00:07:13.459Z,4.97
2019-05-15T00:10:18.224Z,4.70
2019-05-15T00:13:22.591Z,4.53
2019-05-15T00:16:29.057Z,4.30
2019-05-15T00:19:32.985Z,4.87
2019-05-15T00:22:38.898Z,4.27
2019-05-15T00:25:43.459Z,4.77
2019-05-15T00:28:48.030Z,4.43
2019-05-15T00:31:52.367Z,4.13
2019-05-15T00:34:58.283Z,4.80
2019-05-15T00:38:02.670Z,4.67
2019-05-15T00:41:09.510Z,5.60
2019-05-15T00:44:13.149Z,5.43
2019-05-15T00:47:18.123Z,5.40
2019-05-15T00:50:22.578Z,5.47
2019-05-15T00:53:28.310Z,5.33
2019-05-15T00:56:32.887Z,4.83
2019-05-15T00:59:38.952Z,5.10
2019-05-15T01:02:43.181Z,4.50
2019-05-15T01:05:48.029Z,4.13
2019-05-15T01:08:52.529Z,5.00
2019-05-15T01:11:58.686Z,4.87
2019-05-15T01:15:03.057Z,3.97
2019-05-15T01:18:09.333Z,4.57
2019-05-15T01:21:13.352Z,5.17
2019-05-15T01:24:18.895Z,4.63
2019-05-15T01:27:23.453Z,4.33
2019-05-15T01:30:28.619Z,4.97
2019-05-15T01:33:33.001Z,4.90
2019-05-15T01:36:38.300Z,5.10
2019-05-15T01:39:42.677Z,4.67
2019-05-15T01:42:46.991Z,4.60
2019-05-15T01:45:51.281Z,4.83
2019-05-15T01:48:55.592Z,4.97
2019-05-15T01:51:59.879Z,4.93
2019-05-15T01:55:04.215Z,4.90
2019-05-15T01:58:09.080Z,5.10
2019-05-15T02:01:13.761Z,5.43
2019-05-15T02:04:19.675Z,4.70
2019-05-15T02:07:24.121Z,4.30
2019-05-15T02:10:29.223Z,4.67
2019-05-15T02:13:33.672Z,5.03
2019-05-15T02:16:39.318Z,4.80
2019-05-15T02:19:43.813Z,4.80
2019-05-15T02:22:48.476Z,5.53
2019-05-15T02:25:52.931Z,4.60
2019-05-15T02:28:57.194Z,5.53
2019-05-15T02:32:01.531Z,5.30
2019-05-15T02:35:05.830Z,5.27
2019-05-15T02:38:15.520Z,5.07
2019-05-15T02:41:20.157Z,4.97
2019-05-15T02:44:24.490Z,5.10
2019-05-15T02:47:29.189Z,4.93
2019-05-15T02:50:33.636Z,5.00
2019-05-15T02:53:39.567Z,5.20
2019-05-15T02:56:43.876Z,5.33
2019-05-15T02:59:49.851Z,5.33
2019-05-15T03:02:54.158Z,5.30
2019-05-15T03:06:00.171Z,5.13
2019-05-15T03:09:05.603Z,5.20
2019-05-15T03:12:09.867Z,5.10
2019-05-15T03:15:14.471Z,4.97
2019-05-15T03:18:19.400Z,5.33
2019-05-15T03:21:23.944Z,5.00
2019-05-15T03:24:29.107Z,5.47
2019-05-15T03:27:34.854Z,6.37
2019-05-15T03:31:11.390Z,5.30
2019-05-15T03:33:47.221Z,5.37
2019-05-15T03:36:53.156Z,5.20
2019-05-15T03:39:59.572Z,4.80
2019-05-15T03:43:03.844Z,4.93
2019-05-15T03:46:09.057Z,5.27
2019-05-15T03:49:13.613Z,5.30
2019-05-15T03:52:19.074Z,4.67
2019-05-15T03:55:23.728Z,4.77
2019-05-15T03:58:28.776Z,4.90
2019-05-15T04:01:42.371Z,4.37
2019-05-15T04:04:40.632Z,4.53
2019-05-15T04:07:44.907Z,4.40
2019-05-15T04:10:49.202Z,4.73
2019-05-15T04:13:55.330Z,4.20
2019-05-15T04:16:59.807Z,4.47
2019-05-15T04:20:04.545Z,4.40
2019-05-15T04:23:10.183Z,4.47
2019-05-15T04:26:15.880Z,4.90
2019-05-15T04:29:21.349Z,4.23
2019-05-15T04:32:28.599Z,4.50
2019-05-15T04:35:31.676Z,4.33
2019-05-15T04:38:39.152Z,4.47
2019-05-15T04:41:43.453Z,4.30
2019-05-15T04:44:49.543Z,4.60
2019-05-15T04:47:54.789Z,5.10
2019-05-15T04:50:59.151Z,4.60
2019-05-15T04:54:03.579Z,4.73
2019-05-15T04:57:09.255Z,4.77
2019-05-15T05:00:20.159Z,4.90
2019-05-15T05:03:24.562Z,4.40
2019-05-15T05:06:30.093Z,4.63
2019-05-15T05:09:35.267Z,4.60
2019-05-15T05:12:41.780Z,4.40
2019-05-15T05:15:45.557Z,4.10
2019-05-15T05:18:49.834Z,4.17
2019-05-15T05:21:54.341Z,4.53
2019-05-15T05:24:58.656Z,4.33
2019-05-15T05:28:02.941Z,4.47
2019-05-15T05:31:08.378Z,4.00
2019-05-15T05:34:13.451Z,4.33
2019-05-15T05:37:18.464Z,4.67
2019-05-15T05:40:22.871Z,3.93
2019-05-15T05:43:29.831Z,4.17
2019-05-15T05:46:33.284Z,4.50
2019-05-15T05:49:38.193Z,4.30
2019-05-15T05:52:42.737Z,4.50
2019-05-15T05:55:49.185Z,4.10
2019-05-15T05:58:53.229Z,5.17
2019-05-15T06:01:59.007Z,4.40
2019-05-15T06:05:04.060Z,4.53
2019-05-15T06:08:09.430Z,3.83
2019-05-15T06:11:13.694Z,3.60
2019-05-15T06:14:18.444Z,4.00
2019-05-15T06:17:22.812Z,3.77
2019-05-15T06:20:28.283Z,4.30
2019-05-15T06:23:35.637Z,3.33
2019-05-15T06:26:38.906Z,3.60
2019-05-15T06:29:43.229Z,3.33
2019-05-15T06:33:02.012Z,3.23
2019-05-15T06:35:53.647Z,2.90
2019-05-15T06:38:59.071Z,3.40
2019-05-15T06:42:03.566Z,2.67
2019-05-15T06:45:08.184Z,3.20
2019-05-15T06:48:12.614Z,2.70
2019-05-15T06:51:18.176Z,2.70
2019-05-15T06:54:22.678Z,3.37
2019-05-15T06:57:28.692Z,3.57
2019-05-15T07:00:34.909Z,3.20
2019-05-15T07:03:39.655Z,3.40
2019-05-15T07:06:44.085Z,3.23
2019-05-15T07:09:48.772Z,2.97
2019-05-15T07:12:53.142Z,2.80
2019-05-15T07:15:58.556Z,3.07
2019-05-15T07:19:02.931Z,2.60
2019-05-15T07:22:09.390Z,3.50
2019-05-15T07:25:14.066Z,2.43
2019-05-15T07:28:18.553Z,2.83
2019-05-15T07:31:22.851Z,2.30
2019-05-15T07:34:28.370Z,2.53
2019-05-15T07:37:32.967Z,2.37
2019-05-15T07:40:38.523Z,2.47
2019-05-15T07:43:43.273Z,1.77
2019-05-15T07:46:48.897Z,2.00
2019-05-15T07:49:53.451Z,2.30
2019-05-15T07:53:00.447Z,2.03
2019-05-15T07:56:04.842Z,2.33
2019-05-15T07:59:09.143Z,1.97
2019-05-15T08:02:13.429Z,2.30
2019-05-15T08:05:19.658Z,2.23
2019-05-15T08:08:23.960Z,2.40
2019-05-15T08:11:28.680Z,2.37
2019-05-15T08:14:33.269Z,2.30
2019-05-15T08:17:58.478Z,1.60
2019-05-15T08:20:43.759Z,1.80
2019-05-15T08:23:48.581Z,1.60
2019-05-15T08:26:52.941Z,2.33
2019-05-15T08:29:58.142Z,2.30
2019-05-15T08:33:02.488Z,2.70
2019-05-15T08:36:08.351Z,2.47
2019-05-15T08:39:15.330Z,2.23
2019-05-15T08:42:19.616Z,2.23
2019-05-15T08:45:28.283Z,2.40
2019-05-15T08:48:32.957Z,2.63
2019-05-15T08:51:38.125Z,2.20
2019-05-15T08:54:42.705Z,2.50
2019-05-15T08:57:55.077Z,2.50
2019-05-15T09:00:53.112Z,2.53
2019-05-15T09:03:58.189Z,2.63
2019-05-15T09:07:02.754Z,2.20
2019-05-15T09:10:09.023Z,2.53
2019-05-15T09:13:13.463Z,2.70
2019-05-15T09:16:18.532Z,2.10
2019-05-15T09:19:23.124Z,2.97
2019-05-15T09:22:29.171Z,2.60
2019-05-15T09:25:33.784Z,3.10
2019-05-15T09:28:39.043Z,2.67
2019-05-15T09:31:43.631Z,2.87
2019-05-15T09:34:54.987Z,3.20
2019-05-15T09:37:54.131Z,3.00
2019-05-15T09:40:59.878Z,3.27
2019-05-15T09:44:04.602Z,2.73
2019-05-15T09:47:09.297Z,3.00
2019-05-15T09:50:14.066Z,3.00
2019-05-15T09:53:19.011Z,2.70
2019-05-15T09:56:23.754Z,3.37
2019-05-15T09:59:28.324Z,3.20
2019-05-15T10:02:32.666Z,2.70
2019-05-15T10:05:38.920Z,2.77
2019-05-15T10:08:43.607Z,3.40
2019-05-15T10:11:49.157Z,3.37
2019-05-15T10:14:54.178Z,3.43
2019-05-15T10:17:59.678Z,2.97
2019-05-15T10:21:04.322Z,2.77
2019-05-15T10:24:09.456Z,2.80
2019-05-15T10:27:14.002Z,2.87
2019-05-15T10:30:19.076Z,3.03
2019-05-15T10:33:23.429Z,2.70
2019-05-15T10:36:28.128Z,2.60
2019-05-15T10:39:33.898Z,2.70
2019-05-15T10:42:40.256Z,2.50
2019-05-15T10:45:44.536Z,2.20
2019-05-15T10:48:49.495Z,2.33
2019-05-15T10:51:53.977Z,2.70
2019-05-15T10:55:00.937Z,1.93
2019-05-15T10:58:04.670Z,1.83
2019-05-15T11:01:11.323Z,1.87
2019-05-15T11:04:14.916Z,1.57
2019-05-15T11:07:19.633Z,1.47
2019-05-15T11:10:24.039Z,1.43
2019-05-15T11:13:28.863Z,1.40
2019-05-15T11:16:33.488Z,1.23
2019-05-15T11:19:40.498Z,1.40
2019-05-15T11:22:45.712Z,1.30
2019-05-15T11:25:52.098Z,1.80
2019-05-15T11:28:58.731Z,1.30
2019-05-15T11:32:02.704Z,1.60
2019-05-15T11:35:07.270Z,1.27
2019-05-15T11:38:11.577Z,1.20
2019-05-15T11:41:18.412Z,1.30
2019-05-15T11:44:21.831Z,1.20
2019-05-15T11:47:27.891Z,1.30
2019-05-15T11:50:33.445Z,1.30
2019-05-15T11:53:39.794Z,1.50
2019-05-15T11:56:44.014Z,1.23
2019-05-15T11:59:55.052Z,1.57
2019-05-15T12:02:54.617Z,1.50
2019-05-15T12:06:14.569Z,1.40
2019-05-15T12:09:09.108Z,1.37
2019-05-15T12:12:13.020Z,1.47
2019-05-15T12:15:19.182Z,1.40
2019-05-15T12:18:23.589Z,1.40
2019-05-15T12:21:28.643Z,1.70
2019-05-15T12:24:36.719Z,1.50
2019-05-15T12:27:40.424Z,1.50
2019-05-15T12:30:44.997Z,1.37
2019-05-15T12:33:49.546Z,1.40
2019-05-15T12:36:58.090Z,1.83
2019-05-15T13:01:47.459Z,1.10
2019-05-15T13:04:51.787Z,0.90
2019-05-15T13:07:58.025Z,1.10
2019-05-15T13:11:02.511Z,1.10
2019-05-15T13:14:08.131Z,1.10
2019-05-15T13:17:12.521Z,0.97
2019-05-15T13:20:19.575Z,1.43
2019-05-15T13:23:23.866Z,1.00
2019-05-15T13:26:28.146Z,1.30
2019-05-15T13:29:32.444Z,1.30
2019-05-15T13:32:36.712Z,1.20
2019-05-15T13:35:40.982Z,1.20
2019-05-15T13:38:45.257Z,1.23
2019-05-15T13:41:49.555Z,1.10
2019-05-15T13:44:53.808Z,1.27
2019-05-15T13:47:58.095Z,1.50
2019-05-15T13:51:02.512Z,1.50
2019-05-15T13:54:08.737Z,1.33
2019-05-15T13:57:12.830Z,1.83
2019-05-15T14:00:17.306Z,1.80
2019-05-15T14:03:21.589Z,1.97
2019-05-15T14:06:28.435Z,1.50
2019-05-15T14:09:34.493Z,2.10
2019-05-15T14:12:39.077Z,1.60
2019-05-15T14:15:43.409Z,1.93
2019-05-15T14:18:48.045Z,1.43
2019-05-15T14:21:52.418Z,1.80
2019-05-15T14:24:58.378Z,1.90
2019-05-15T14:28:02.846Z,2.20
2019-05-15T14:31:09.521Z,1.70
2019-05-15T14:34:13.159Z,1.80
2019-05-15T14:37:18.905Z,2.07
2019-05-15T14:40:23.292Z,2.17
2019-05-15T14:43:29.446Z,2.17
2019-05-15T14:46:33.884Z,2.10
2019-05-15T14:49:44.671Z,2.63
2019-05-15T14:52:44.160Z,1.90
2019-05-15T14:55:49.353Z,2.30
2019-05-15T14:58:53.694Z,2.17
2019-05-15T15:01:58.162Z,1.93
2019-05-15T15:05:02.572Z,2.20
2019-05-15T15:08:20.822Z,2.10
2019-05-15T15:11:13.033Z,2.20
2019-05-15T15:14:18.005Z,2.33
2019-05-15T15:17:22.381Z,2.20
2019-05-15T15:20:28.576Z,2.37
2019-05-15T15:23:32.997Z,2.37
2019-05-15T15:26:39.110Z,2.20
2019-05-15T15:29:43.277Z,2.03
2019-05-15T15:32:49.353Z,2.80
2019-05-15T15:35:53.985Z,2.00
2019-05-15T15:38:58.771Z,2.20
2019-05-15T15:42:03.344Z,2.07
2019-05-15T15:45:09.244Z,2.50
2019-05-15T15:48:13.714Z,1.97
2019-05-15T15:51:17.996Z,2.20
2019-05-15T15:54:22.547Z,2.33
2019-05-15T15:57:28.529Z,1.90
2019-05-15T16:00:33.023Z,2.00
2019-05-15T16:03:37.992Z,2.40
2019-05-15T16:06:42.379Z,1.70
2019-05-15T16:09:48.315Z,1.80
2019-05-15T16:12:52.753Z,1.80
2019-05-15T16:15:58.856Z,2.07
2019-05-15T16:19:03.182Z,1.90
2019-05-15T16:22:08.793Z,1.70
2019-05-15T16:25:13.731Z,1.73
2019-05-15T16:28:18.586Z,1.80
2019-05-15T16:31:22.980Z,1.90
2019-05-15T16:34:28.404Z,1.60
2019-05-15T16:37:33.144Z,1.80
2019-05-15T16:40:39.273Z,1.67
2019-05-15T16:43:44.659Z,2.10
2019-05-15T16:46:50.079Z,2.30
2019-05-15T16:49:54.409Z,2.10
2019-05-15T16:52:59.033Z,2.30
2019-05-15T16:56:04.647Z,2.27
2019-05-15T16:59:08.942Z,2.10
2019-05-15T17:02:13.541Z,2.80
2019-05-15T17:05:18.752Z,2.20
2019-05-15T17:08:23.240Z,2.80
2019-05-15T17:11:28.916Z,2.07
2019-05-15T17:14:33.347Z,2.47
2019-05-15T17:17:38.647Z,2.23
2019-05-15T17:20:43.980Z,2.03
2019-05-15T17:23:48.936Z,2.33
2019-05-15T17:26:53.623Z,2.00
2019-05-15T17:29:58.508Z,2.00
2019-05-15T17:33:03.037Z,2.23
2019-05-15T17:36:07.671Z,2.20
2019-05-15T17:39:12.354Z,2.20
2019-05-15T17:42:18.203Z,2.13
2019-05-15T17:45:22.713Z,2.10
2019-05-15T17:48:29.187Z,2.10
2019-05-15T17:51:33.596Z,2.20
2019-05-15T17:54:38.084Z,2.27
2019-05-15T17:57:42.746Z,2.20
2019-05-15T18:00:48.672Z,2.10
2019-05-15T18:03:54.329Z,2.33
2019-05-15T18:06:59.167Z,2.43
2019-05-15T18:10:03.680Z,2.40
2019-05-15T18:13:11.558Z,2.40
2019-05-15T18:16:18.080Z,2.17
2019-05-15T18:19:22.201Z,2.03
2019-05-15T18:22:26.646Z,2.30
2019-05-15T18:25:30.978Z,2.30
2019-05-15T18:28:35.351Z,2.10
2019-05-15T18:31:40.754Z,2.00
2019-05-15T18:34:45.229Z,3.67
2019-05-15T18:37:49.581Z,2.30
2019-05-15T18:40:54.179Z,2.03
2019-05-15T18:43:58.645Z,2.60
2019-05-15T18:47:03.194Z,2.37
2019-05-15T18:50:12.632Z,2.60
2019-05-15T18:53:14.328Z,2.30
2019-05-15T18:56:18.901Z,2.17
2019-05-15T18:59:23.356Z,2.57
2019-05-15T19:02:28.169Z,2.60
2019-05-15T19:05:32.946Z,2.80
2019-05-15T19:08:38.875Z,2.40
2019-05-15T19:11:43.591Z,3.10
2019-05-15T19:14:49.364Z,2.70
2019-05-15T19:17:54.578Z,2.40
2019-05-15T19:20:59.586Z,2.30
2019-05-15T19:24:07.600Z,2.90
2019-05-15T19:27:12.760Z,2.37
2019-05-15T19:30:19.097Z,2.63
2019-05-15T19:33:34.288Z,2.00
2019-05-15T19:36:31.922Z,2.30
2019-05-15T19:39:38.559Z,2.13
2019-05-15T19:42:42.958Z,2.67
2019-05-15T19:45:47.775Z,2.20
2019-05-15T19:48:52.511Z,2.37
2019-05-15T19:51:58.128Z,2.47
2019-05-15T19:55:02.825Z,2.17
2019-05-15T19:58:08.834Z,2.97
2019-05-15T20:01:14.485Z,2.83
2019-05-15T20:04:19.077Z,2.87
2019-05-15T20:07:23.631Z,3.03
2019-05-15T20:10:29.246Z,3.60
2019-05-15T20:13:33.949Z,2.53
2019-05-15T20:16:40.081Z,3.43
2019-05-15T20:19:44.689Z,3.17
2019-05-15T20:22:49.164Z,3.00
2019-05-15T20:25:54.810Z,3.03
2019-05-15T20:28:59.135Z,2.93
2019-05-15T20:32:03.535Z,3.97
2019-05-15T20:35:08.826Z,3.00
2019-05-15T20:38:13.546Z,3.47
2019-05-15T20:41:18.671Z,3.27
2019-05-15T20:44:24.164Z,3.43
2019-05-15T20:47:28.706Z,3.90
2019-05-15T20:50:33.036Z,3.60
2019-05-15T20:53:38.476Z,3.37
2019-05-15T20:56:44.601Z,3.93
2019-05-15T20:59:49.063Z,3.70
2019-05-15T21:02:54.444Z,3.93
2019-05-15T21:06:00.879Z,3.40
2019-05-15T21:09:05.572Z,3.40
2019-05-15T21:12:10.028Z,4.03
2019-05-15T21:15:16.958Z,3.90
2019-05-15T21:18:23.872Z,3.90
2019-05-15T21:21:28.210Z,4.00
2019-05-15T21:24:32.576Z,3.90
2019-05-15T21:27:41.260Z,3.53
2019-05-15T21:30:44.421Z,3.87
2019-05-15T21:33:50.455Z,3.77
2019-05-15T21:36:54.852Z,3.80
2019-05-15T21:39:59.247Z,2.93
2019-05-15T21:43:03.795Z,3.60
2019-05-15T21:46:09.917Z,3.10
2019-05-15T21:49:14.218Z,3.33
2019-05-15T21:52:20.629Z,3.40
2019-05-15T21:55:24.509Z,3.83
2019-05-15T21:58:28.993Z,3.43
2019-05-15T22:01:33.299Z,3.60
2019-05-15T22:04:49.056Z,3.83
2019-05-15T22:07:43.669Z,4.53
2019-05-15T22:10:48.336Z,4.83
2019-05-15T22:13:52.683Z,4.20
2019-05-15T22:16:59.982Z,4.53
2019-05-15T22:20:05.778Z,4.50
2019-05-15T22:23:11.911Z,4.33
2019-05-15T22:26:18.455Z,4.90
2019-05-15T22:29:22.718Z,4.60
2019-05-15T22:32:29.217Z,4.70
2019-05-15T22:35:34.001Z,5.80
2019-05-15T22:38:38.316Z,5.57
2019-05-15T22:41:42.611Z,4.40
2019-05-15T22:44:47.830Z,5.00
2019-05-15T22:47:52.205Z,4.77
2019-05-15T22:50:58.346Z,4.70
2019-05-15T22:54:02.734Z,4.90
2019-05-15T22:57:06.999Z,5.70
2019-05-15T23:00:11.893Z,5.27
2019-05-15T23:03:18.796Z,5.17
2019-05-15T23:06:22.281Z,5.47
2019-05-15T23:09:28.385Z,5.10
2019-05-15T23:12:32.603Z,5.57
2019-05-15T23:15:38.573Z,5.57
2019-05-15T23:18:42.983Z,5.23
2019-05-15T23:21:48.773Z,5.63
2019-05-15T23:24:53.142Z,6.07
2019-05-15T23:27:58.198Z,5.40
2019-05-15T23:31:02.709Z,5.90
2019-05-15T23:34:08.086Z,5.70
2019-05-15T23:37:12.456Z,5.87
2019-05-15T23:40:18.005Z,6.23
2019-05-15T23:43:22.431Z,6.83
2019-05-15T23:46:28.835Z,6.43
2019-05-15T23:49:35.623Z,6.50
2019-05-15T23:52:40.515Z,6.60
2019-05-15T23:55:44.863Z,6.13
2019-05-15T23:58:50.182Z,7.73
